sensor_id;sensor_type;location;lat;lon;timestamp;P1;durP1;ratioP1;P2;durP2;ratioP2
64037;SDS011;54641;50.168;8.492;2023-02-18T00:01:47;1.90;;;1.10;;
64037;SDS011;54641;50.168;8.492;2023-02-18T00:04:17;2.30;;;1.10;;
64037;SDS011;54641;50.168;8.492;2023-02-18T00:06:48;1.90;;;1.40;;
64037;SDS011;54641;50.168;8.492;2023-02-18T00:09:18;2.70;;;1.60;;
64037;SDS011;54641;50.168;8.492;2023-02-18T00:11:48;1.90;;;1.30;;
64037;SDS011;54641;50.168;8.492;2023-02-18T00:14:19;1.80;;;1.20;;
64037;SDS011;54641;50.168;8.492;2023-02-18T00:16:49;2.30;;;1.10;;
64037;SDS011;54641;50.168;8.492;2023-02-18T00:19:20;2.50;;;1.10;;
64037;SDS011;54641;50.168;8.492;2023-02-18T00:21:50;2.10;;;1.30;;
64037;SDS011;54641;50.168;8.492;2023-02-18T00:24:21;2.10;;;1.20;;
64037;SDS011;54641;50.168;8.492;2023-02-18T00:26:51;3.10;;;1.40;;
64037;SDS011;54641;50.168;8.492;2023-02-18T00:29:22;1.60;;;1.00;;
64037;SDS011;54641;50.168;8.492;2023-02-18T00:31:52;1.70;;;0.90;;
64037;SDS011;54641;50.168;8.492;2023-02-18T00:34:23;1.10;;;0.90;;
64037;SDS011;54641;50.168;8.492;2023-02-18T00:36:53;5.50;;;2.20;;
64037;SDS011;54641;50.168;8.492;2023-02-18T00:39:24;1.90;;;1.20;;
64037;SDS011;54641;50.168;8.492;2023-02-18T00:41:54;2.50;;;0.90;;
64037;SDS011;54641;50.168;8.492;2023-02-18T00:44:26;2.20;;;1.00;;
64037;SDS011;54641;50.168;8.492;2023-02-18T00:46:57;2.50;;;1.50;;
64037;SDS011;54641;50.168;8.492;2023-02-18T00:49:27;1.40;;;0.90;;
64037;SDS011;54641;50.168;8.492;2023-02-18T00:51:58;1.10;;;0.80;;
64037;SDS011;54641;50.168;8.492;2023-02-18T00:54:28;1.30;;;0.90;;
64037;SDS011;54641;50.168;8.492;2023-02-18T00:56:59;1.60;;;0.90;;
64037;SDS011;54641;50.168;8.492;2023-02-18T00:59:29;1.30;;;0.80;;
64037;SDS011;54641;50.168;8.492;2023-02-18T01:02:01;1.50;;;1.00;;
64037;SDS011;54641;50.168;8.492;2023-02-18T01:04:31;1.40;;;0.80;;
64037;SDS011;54641;50.168;8.492;2023-02-18T01:07:02;1.60;;;0.80;;
64037;SDS011;54641;50.168;8.492;2023-02-18T01:09:32;2.40;;;1.00;;
64037;SDS011;54641;50.168;8.492;2023-02-18T01:12:03;1.40;;;0.80;;
64037;SDS011;54641;50.168;8.492;2023-02-18T01:14:34;1.70;;;1.00;;
64037;SDS011;54641;50.168;8.492;2023-02-18T01:17:05;1.50;;;0.80;;
64037;SDS011;54641;50.168;8.492;2023-02-18T01:19:35;1.20;;;0.90;;
64037;SDS011;54641;50.168;8.492;2023-02-18T01:22:06;2.10;;;1.10;;
64037;SDS011;54641;50.168;8.492;2023-02-18T01:24:36;1.90;;;1.20;;
64037;SDS011;54641;50.168;8.492;2023-02-18T01:27:07;1.80;;;1.10;;
64037;SDS011;54641;50.168;8.492;2023-02-18T01:29:37;1.60;;;0.90;;
64037;SDS011;54641;50.168;8.492;2023-02-18T01:32:08;2.40;;;0.90;;
64037;SDS011;54641;50.168;8.492;2023-02-18T01:34:39;1.60;;;0.90;;
64037;SDS011;54641;50.168;8.492;2023-02-18T01:37:09;1.30;;;0.80;;
64037;SDS011;54641;50.168;8.492;2023-02-18T01:39:40;1.30;;;0.70;;
64037;SDS011;54641;50.168;8.492;2023-02-18T01:42:16;1.30;;;0.80;;
64037;SDS011;54641;50.168;8.492;2023-02-18T01:44:50;1.10;;;0.80;;
64037;SDS011;54641;50.168;8.492;2023-02-18T01:47:20;1.10;;;0.80;;
64037;SDS011;54641;50.168;8.492;2023-02-18T01:49:51;1.80;;;0.90;;
64037;SDS011;54641;50.168;8.492;2023-02-18T01:52:23;1.80;;;1.10;;
64037;SDS011;54641;50.168;8.492;2023-02-18T01:54:55;1.10;;;0.70;;
64037;SDS011;54641;50.168;8.492;2023-02-18T01:57:29;2.60;;;1.10;;
64037;SDS011;54641;50.168;8.492;2023-02-18T02:00:04;1.40;;;0.70;;
64037;SDS011;54641;50.168;8.492;2023-02-18T02:02:43;1.40;;;0.80;;
64037;SDS011;54641;50.168;8.492;2023-02-18T02:05:14;2.50;;;1.20;;
64037;SDS011;54641;50.168;8.492;2023-02-18T02:07:46;1.00;;;0.50;;
64037;SDS011;54641;50.168;8.492;2023-02-18T02:10:18;1.00;;;0.70;;
64037;SDS011;54641;50.168;8.492;2023-02-18T02:12:52;1.20;;;0.80;;
64037;SDS011;54641;50.168;8.492;2023-02-18T02:15:32;1.20;;;0.70;;
64037;SDS011;54641;50.168;8.492;2023-02-18T02:18:07;1.30;;;0.80;;
64037;SDS011;54641;50.168;8.492;2023-02-18T02:20:56;0.70;;;0.50;;
64037;SDS011;54641;50.168;8.492;2023-02-18T02:27:16;0.90;;;0.60;;
64037;SDS011;54641;50.168;8.492;2023-02-18T02:32:52;1.40;;;0.90;;
64037;SDS011;54641;50.168;8.492;2023-02-18T02:35:32;0.50;;;0.50;;
64037;SDS011;54641;50.168;8.492;2023-02-18T02:38:07;1.50;;;0.70;;
64037;SDS011;54641;50.168;8.492;2023-02-18T02:40:43;1.50;;;0.80;;
64037;SDS011;54641;50.168;8.492;2023-02-18T02:43:19;1.20;;;0.70;;
64037;SDS011;54641;50.168;8.492;2023-02-18T02:45:55;3.70;;;0.90;;
64037;SDS011;54641;50.168;8.492;2023-02-18T02:48:30;1.10;;;0.70;;
64037;SDS011;54641;50.168;8.492;2023-02-18T02:51:06;0.80;;;0.50;;
64037;SDS011;54641;50.168;8.492;2023-02-18T02:53:40;0.80;;;0.70;;
64037;SDS011;54641;50.168;8.492;2023-02-18T02:56:14;0.60;;;0.60;;
64037;SDS011;54641;50.168;8.492;2023-02-18T02:58:46;1.30;;;0.70;;
64037;SDS011;54641;50.168;8.492;2023-02-18T03:01:23;1.20;;;0.60;;
64037;SDS011;54641;50.168;8.492;2023-02-18T03:04:08;2.00;;;0.70;;
64037;SDS011;54641;50.168;8.492;2023-02-18T03:09:57;1.40;;;0.70;;
64037;SDS011;54641;50.168;8.492;2023-02-18T03:12:42;2.00;;;0.80;;
64037;SDS011;54641;50.168;8.492;2023-02-18T03:15:19;0.90;;;0.60;;
64037;SDS011;54641;50.168;8.492;2023-02-18T03:17:54;2.30;;;0.50;;
64037;SDS011;54641;50.168;8.492;2023-02-18T03:20:27;1.00;;;0.50;;
64037;SDS011;54641;50.168;8.492;2023-02-18T03:22:59;0.90;;;0.40;;
64037;SDS011;54641;50.168;8.492;2023-02-18T03:25:31;0.60;;;0.50;;
64037;SDS011;54641;50.168;8.492;2023-02-18T03:28:03;0.80;;;0.50;;
64037;SDS011;54641;50.168;8.492;2023-02-18T03:30:35;0.50;;;0.40;;
64037;SDS011;54641;50.168;8.492;2023-02-18T03:33:09;0.60;;;0.50;;
64037;SDS011;54641;50.168;8.492;2023-02-18T03:35:43;1.20;;;0.60;;
64037;SDS011;54641;50.168;8.492;2023-02-18T03:38:16;1.30;;;0.40;;
64037;SDS011;54641;50.168;8.492;2023-02-18T03:40:50;2.00;;;0.50;;
64037;SDS011;54641;50.168;8.492;2023-02-18T03:43:20;0.90;;;0.60;;
64037;SDS011;54641;50.168;8.492;2023-02-18T03:45:51;0.30;;;0.30;;
64037;SDS011;54641;50.168;8.492;2023-02-18T03:48:21;0.50;;;0.40;;
64037;SDS011;54641;50.168;8.492;2023-02-18T03:50:52;2.20;;;0.50;;
64037;SDS011;54641;50.168;8.492;2023-02-18T03:53:22;0.70;;;0.40;;
64037;SDS011;54641;50.168;8.492;2023-02-18T03:55:53;0.50;;;0.40;;
64037;SDS011;54641;50.168;8.492;2023-02-18T03:58:23;1.10;;;0.50;;
64037;SDS011;54641;50.168;8.492;2023-02-18T04:00:53;0.50;;;0.40;;
64037;SDS011;54641;50.168;8.492;2023-02-18T04:03:24;1.20;;;0.50;;
64037;SDS011;54641;50.168;8.492;2023-02-18T04:05:54;0.50;;;0.50;;
64037;SDS011;54641;50.168;8.492;2023-02-18T04:08:25;1.60;;;0.80;;
64037;SDS011;54641;50.168;8.492;2023-02-18T04:10:55;0.80;;;0.50;;
64037;SDS011;54641;50.168;8.492;2023-02-18T04:13:25;0.70;;;0.40;;
64037;SDS011;54641;50.168;8.492;2023-02-18T04:15:56;1.50;;;0.50;;
64037;SDS011;54641;50.168;8.492;2023-02-18T04:18:27;2.60;;;1.00;;
64037;SDS011;54641;50.168;8.492;2023-02-18T04:20:57;1.20;;;0.50;;
64037;SDS011;54641;50.168;8.492;2023-02-18T04:23:27;2.00;;;0.70;;
64037;SDS011;54641;50.168;8.492;2023-02-18T04:25:59;2.50;;;0.60;;
64037;SDS011;54641;50.168;8.492;2023-02-18T04:28:29;3.10;;;0.70;;
64037;SDS011;54641;50.168;8.492;2023-02-18T04:30:59;1.30;;;0.60;;
64037;SDS011;54641;50.168;8.492;2023-02-18T04:33:30;1.70;;;0.60;;
64037;SDS011;54641;50.168;8.492;2023-02-18T04:36:00;2.50;;;1.30;;
64037;SDS011;54641;50.168;8.492;2023-02-18T04:38:31;1.80;;;0.80;;
64037;SDS011;54641;50.168;8.492;2023-02-18T04:41:02;2.10;;;1.00;;
64037;SDS011;54641;50.168;8.492;2023-02-18T04:43:32;1.00;;;0.80;;
64037;SDS011;54641;50.168;8.492;2023-02-18T04:46:03;2.30;;;0.90;;
64037;SDS011;54641;50.168;8.492;2023-02-18T04:48:34;1.60;;;0.80;;
64037;SDS011;54641;50.168;8.492;2023-02-18T04:51:04;3.00;;;0.90;;
64037;SDS011;54641;50.168;8.492;2023-02-18T04:53:35;4.00;;;3.10;;
64037;SDS011;54641;50.168;8.492;2023-02-18T04:56:05;2.20;;;1.00;;
64037;SDS011;54641;50.168;8.492;2023-02-18T04:58:36;2.10;;;0.80;;
64037;SDS011;54641;50.168;8.492;2023-02-18T05:01:07;1.60;;;1.10;;
64037;SDS011;54641;50.168;8.492;2023-02-18T05:03:37;2.40;;;1.40;;
64037;SDS011;54641;50.168;8.492;2023-02-18T05:06:07;3.90;;;1.10;;
64037;SDS011;54641;50.168;8.492;2023-02-18T05:08:38;2.20;;;1.20;;
64037;SDS011;54641;50.168;8.492;2023-02-18T05:11:08;2.30;;;1.00;;
64037;SDS011;54641;50.168;8.492;2023-02-18T05:13:38;2.80;;;1.60;;
64037;SDS011;54641;50.168;8.492;2023-02-18T05:16:09;4.10;;;1.30;;
64037;SDS011;54641;50.168;8.492;2023-02-18T05:18:40;2.30;;;1.10;;
64037;SDS011;54641;50.168;8.492;2023-02-18T05:21:10;2.30;;;1.10;;
64037;SDS011;54641;50.168;8.492;2023-02-18T05:23:41;2.60;;;1.70;;
64037;SDS011;54641;50.168;8.492;2023-02-18T05:26:11;3.10;;;1.20;;
64037;SDS011;54641;50.168;8.492;2023-02-18T05:28:41;2.80;;;1.40;;
64037;SDS011;54641;50.168;8.492;2023-02-18T05:31:12;2.70;;;1.40;;
64037;SDS011;54641;50.168;8.492;2023-02-18T05:33:43;3.80;;;1.50;;
64037;SDS011;54641;50.168;8.492;2023-02-18T05:36:13;2.40;;;1.40;;
64037;SDS011;54641;50.168;8.492;2023-02-18T05:38:43;3.30;;;1.40;;
64037;SDS011;54641;50.168;8.492;2023-02-18T05:41:14;3.50;;;1.80;;
64037;SDS011;54641;50.168;8.492;2023-02-18T05:43:44;3.20;;;1.80;;
64037;SDS011;54641;50.168;8.492;2023-02-18T05:46:32;2.40;;;1.20;;
64037;SDS011;54641;50.168;8.492;2023-02-18T05:49:02;2.60;;;1.70;;
64037;SDS011;54641;50.168;8.492;2023-02-18T05:51:33;2.60;;;1.60;;
64037;SDS011;54641;50.168;8.492;2023-02-18T05:54:03;2.90;;;1.50;;
64037;SDS011;54641;50.168;8.492;2023-02-18T05:56:33;2.60;;;1.60;;
64037;SDS011;54641;50.168;8.492;2023-02-18T05:59:04;2.50;;;1.50;;
64037;SDS011;54641;50.168;8.492;2023-02-18T06:01:34;3.50;;;1.50;;
64037;SDS011;54641;50.168;8.492;2023-02-18T06:04:05;2.40;;;1.50;;
64037;SDS011;54641;50.168;8.492;2023-02-18T06:06:35;1.80;;;1.10;;
64037;SDS011;54641;50.168;8.492;2023-02-18T06:09:06;2.70;;;1.40;;
64037;SDS011;54641;50.168;8.492;2023-02-18T06:11:36;1.80;;;1.10;;
64037;SDS011;54641;50.168;8.492;2023-02-18T06:14:07;1.80;;;1.20;;
64037;SDS011;54641;50.168;8.492;2023-02-18T06:16:38;2.60;;;1.30;;
64037;SDS011;54641;50.168;8.492;2023-02-18T06:19:09;1.30;;;1.00;;
64037;SDS011;54641;50.168;8.492;2023-02-18T06:21:39;2.10;;;1.00;;
64037;SDS011;54641;50.168;8.492;2023-02-18T06:24:09;1.80;;;1.00;;
64037;SDS011;54641;50.168;8.492;2023-02-18T06:26:40;2.00;;;1.20;;
64037;SDS011;54641;50.168;8.492;2023-02-18T06:29:10;1.20;;;0.90;;
64037;SDS011;54641;50.168;8.492;2023-02-18T06:31:41;1.50;;;1.00;;
64037;SDS011;54641;50.168;8.492;2023-02-18T06:34:11;1.60;;;0.90;;
64037;SDS011;54641;50.168;8.492;2023-02-18T06:36:42;1.60;;;1.20;;
64037;SDS011;54641;50.168;8.492;2023-02-18T06:39:12;2.40;;;1.00;;
64037;SDS011;54641;50.168;8.492;2023-02-18T06:41:43;2.30;;;1.40;;
64037;SDS011;54641;50.168;8.492;2023-02-18T06:44:13;1.80;;;1.00;;
64037;SDS011;54641;50.168;8.492;2023-02-18T06:46:44;2.80;;;1.30;;
64037;SDS011;54641;50.168;8.492;2023-02-18T06:49:14;2.80;;;1.70;;
64037;SDS011;54641;50.168;8.492;2023-02-18T06:51:44;2.10;;;1.30;;
64037;SDS011;54641;50.168;8.492;2023-02-18T06:54:15;1.90;;;1.30;;
64037;SDS011;54641;50.168;8.492;2023-02-18T06:56:45;2.80;;;2.20;;
64037;SDS011;54641;50.168;8.492;2023-02-18T06:59:16;3.20;;;1.40;;
64037;SDS011;54641;50.168;8.492;2023-02-18T07:01:46;1.70;;;1.40;;
64037;SDS011;54641;50.168;8.492;2023-02-18T07:04:16;3.40;;;1.30;;
64037;SDS011;54641;50.168;8.492;2023-02-18T07:06:47;1.60;;;1.20;;
64037;SDS011;54641;50.168;8.492;2023-02-18T07:09:17;3.70;;;1.30;;
64037;SDS011;54641;50.168;8.492;2023-02-18T07:11:48;2.10;;;1.10;;
64037;SDS011;54641;50.168;8.492;2023-02-18T07:14:18;2.90;;;1.40;;
64037;SDS011;54641;50.168;8.492;2023-02-18T07:16:50;2.60;;;1.30;;
64037;SDS011;54641;50.168;8.492;2023-02-18T07:19:21;2.30;;;1.30;;
64037;SDS011;54641;50.168;8.492;2023-02-18T07:21:51;3.10;;;1.70;;
64037;SDS011;54641;50.168;8.492;2023-02-18T07:24:24;2.30;;;1.40;;
64037;SDS011;54641;50.168;8.492;2023-02-18T07:26:54;2.70;;;1.60;;
64037;SDS011;54641;50.168;8.492;2023-02-18T07:29:24;2.40;;;1.40;;
64037;SDS011;54641;50.168;8.492;2023-02-18T07:31:55;1.70;;;1.20;;
64037;SDS011;54641;50.168;8.492;2023-02-18T07:34:25;3.50;;;1.80;;
64037;SDS011;54641;50.168;8.492;2023-02-18T07:36:55;3.10;;;2.10;;
64037;SDS011;54641;50.168;8.492;2023-02-18T07:39:26;3.70;;;1.80;;
64037;SDS011;54641;50.168;8.492;2023-02-18T07:41:56;4.60;;;2.90;;
64037;SDS011;54641;50.168;8.492;2023-02-18T07:44:26;2.80;;;1.80;;
64037;SDS011;54641;50.168;8.492;2023-02-18T07:46:57;4.50;;;2.00;;
64037;SDS011;54641;50.168;8.492;2023-02-18T07:49:28;3.70;;;2.40;;
64037;SDS011;54641;50.168;8.492;2023-02-18T07:51:59;3.40;;;2.30;;
64037;SDS011;54641;50.168;8.492;2023-02-18T07:54:31;3.20;;;2.10;;
64037;SDS011;54641;50.168;8.492;2023-02-18T07:57:01;3.50;;;2.00;;
64037;SDS011;54641;50.168;8.492;2023-02-18T07:59:32;4.20;;;2.40;;
64037;SDS011;54641;50.168;8.492;2023-02-18T08:02:03;4.00;;;1.90;;
64037;SDS011;54641;50.168;8.492;2023-02-18T08:04:34;6.70;;;3.60;;
64037;SDS011;54641;50.168;8.492;2023-02-18T08:07:04;6.10;;;3.60;;
64037;SDS011;54641;50.168;8.492;2023-02-18T08:09:34;3.40;;;1.90;;
64037;SDS011;54641;50.168;8.492;2023-02-18T08:12:06;3.60;;;2.00;;
64037;SDS011;54641;50.168;8.492;2023-02-18T08:14:36;3.20;;;2.20;;
64037;SDS011;54641;50.168;8.492;2023-02-18T08:17:07;4.00;;;1.80;;
64037;SDS011;54641;50.168;8.492;2023-02-18T08:19:37;4.10;;;2.10;;
64037;SDS011;54641;50.168;8.492;2023-02-18T08:22:08;3.00;;;1.70;;
64037;SDS011;54641;50.168;8.492;2023-02-18T08:24:38;3.60;;;1.90;;
64037;SDS011;54641;50.168;8.492;2023-02-18T08:27:09;3.60;;;1.90;;
64037;SDS011;54641;50.168;8.492;2023-02-18T08:29:41;2.60;;;1.70;;
64037;SDS011;54641;50.168;8.492;2023-02-18T08:32:11;3.90;;;1.80;;
64037;SDS011;54641;50.168;8.492;2023-02-18T08:34:41;4.70;;;2.60;;
64037;SDS011;54641;50.168;8.492;2023-02-18T08:37:12;3.30;;;1.90;;
64037;SDS011;54641;50.168;8.492;2023-02-18T08:39:42;3.60;;;2.20;;
64037;SDS011;54641;50.168;8.492;2023-02-18T08:42:13;3.40;;;2.20;;
64037;SDS011;54641;50.168;8.492;2023-02-18T08:44:43;2.70;;;1.80;;
64037;SDS011;54641;50.168;8.492;2023-02-18T08:47:14;3.50;;;2.00;;
64037;SDS011;54641;50.168;8.492;2023-02-18T08:50:04;2.80;;;1.90;;
64037;SDS011;54641;50.168;8.492;2023-02-18T08:52:35;3.50;;;2.10;;
64037;SDS011;54641;50.168;8.492;2023-02-18T08:55:06;4.10;;;2.40;;
64037;SDS011;54641;50.168;8.492;2023-02-18T08:57:37;4.60;;;2.10;;
64037;SDS011;54641;50.168;8.492;2023-02-18T09:00:08;3.60;;;2.20;;
64037;SDS011;54641;50.168;8.492;2023-02-18T09:02:42;3.10;;;2.00;;
64037;SDS011;54641;50.168;8.492;2023-02-18T09:05:14;3.10;;;1.80;;
64037;SDS011;54641;50.168;8.492;2023-02-18T09:07:45;4.50;;;3.10;;
64037;SDS011;54641;50.168;8.492;2023-02-18T09:10:15;2.20;;;1.60;;
64037;SDS011;54641;50.168;8.492;2023-02-18T09:12:46;2.80;;;1.80;;
64037;SDS011;54641;50.168;8.492;2023-02-18T09:15:16;5.80;;;1.50;;
64037;SDS011;54641;50.168;8.492;2023-02-18T09:17:46;2.40;;;1.60;;
64037;SDS011;54641;50.168;8.492;2023-02-18T09:20:17;4.10;;;3.00;;
64037;SDS011;54641;50.168;8.492;2023-02-18T09:22:48;4.00;;;3.10;;
64037;SDS011;54641;50.168;8.492;2023-02-18T09:25:18;2.10;;;1.60;;
64037;SDS011;54641;50.168;8.492;2023-02-18T09:27:49;1.80;;;1.30;;
64037;SDS011;54641;50.168;8.492;2023-02-18T09:30:20;2.30;;;1.40;;
64037;SDS011;54641;50.168;8.492;2023-02-18T09:32:50;2.20;;;1.10;;
64037;SDS011;54641;50.168;8.492;2023-02-18T09:35:20;1.90;;;1.10;;
64037;SDS011;54641;50.168;8.492;2023-02-18T09:37:51;1.70;;;1.10;;
64037;SDS011;54641;50.168;8.492;2023-02-18T09:40:25;2.00;;;1.10;;
64037;SDS011;54641;50.168;8.492;2023-02-18T09:42:59;2.10;;;1.00;;
64037;SDS011;54641;50.168;8.492;2023-02-18T09:45:31;2.30;;;1.20;;
64037;SDS011;54641;50.168;8.492;2023-02-18T09:48:02;2.10;;;0.80;;
64037;SDS011;54641;50.168;8.492;2023-02-18T09:50:35;1.80;;;1.10;;
64037;SDS011;54641;50.168;8.492;2023-02-18T09:55:40;2.60;;;1.20;;
64037;SDS011;54641;50.168;8.492;2023-02-18T09:58:15;1.70;;;1.10;;
64037;SDS011;54641;50.168;8.492;2023-02-18T10:00:51;2.00;;;1.00;;
64037;SDS011;54641;50.168;8.492;2023-02-18T10:03:27;0.80;;;0.60;;
64037;SDS011;54641;50.168;8.492;2023-02-18T10:06:01;2.40;;;1.10;;
64037;SDS011;54641;50.168;8.492;2023-02-18T10:08:37;3.30;;;1.00;;
64037;SDS011;54641;50.168;8.492;2023-02-18T10:11:13;1.10;;;0.80;;
64037;SDS011;54641;50.168;8.492;2023-02-18T10:13:47;1.60;;;0.80;;
64037;SDS011;54641;50.168;8.492;2023-02-18T10:16:18;1.50;;;1.00;;
64037;SDS011;54641;50.168;8.492;2023-02-18T10:18:52;2.60;;;1.00;;
64037;SDS011;54641;50.168;8.492;2023-02-18T10:21:28;1.60;;;0.90;;
64037;SDS011;54641;50.168;8.492;2023-02-18T10:24:05;1.90;;;0.80;;
64037;SDS011;54641;50.168;8.492;2023-02-18T10:26:40;2.00;;;1.00;;
64037;SDS011;54641;50.168;8.492;2023-02-18T10:29:15;2.20;;;0.90;;
64037;SDS011;54641;50.168;8.492;2023-02-18T10:31:51;1.50;;;0.90;;
64037;SDS011;54641;50.168;8.492;2023-02-18T10:34:34;1.10;;;0.80;;
64037;SDS011;54641;50.168;8.492;2023-02-18T10:37:19;0.90;;;0.70;;
64037;SDS011;54641;50.168;8.492;2023-02-18T10:45:03;0.70;;;0.50;;
64037;SDS011;54641;50.168;8.492;2023-02-18T10:47:41;1.00;;;0.70;;
64037;SDS011;54641;50.168;8.492;2023-02-18T10:50:22;1.00;;;0.50;;
64037;SDS011;54641;50.168;8.492;2023-02-18T10:52:56;1.60;;;0.60;;
64037;SDS011;54641;50.168;8.492;2023-02-18T10:55:36;1.20;;;0.70;;
64037;SDS011;54641;50.168;8.492;2023-02-18T11:00:56;0.80;;;0.60;;
64037;SDS011;54641;50.168;8.492;2023-02-18T11:03:37;1.20;;;1.00;;
64037;SDS011;54641;50.168;8.492;2023-02-18T11:06:15;2.10;;;1.70;;
64037;SDS011;54641;50.168;8.492;2023-02-18T11:08:49;1.60;;;1.10;;
64037;SDS011;54641;50.168;8.492;2023-02-18T11:11:23;2.20;;;0.70;;
64037;SDS011;54641;50.168;8.492;2023-02-18T11:14:00;1.20;;;0.80;;
64037;SDS011;54641;50.168;8.492;2023-02-18T11:16:38;1.60;;;0.90;;
64037;SDS011;54641;50.168;8.492;2023-02-18T11:22:06;2.60;;;0.70;;
64037;SDS011;54641;50.168;8.492;2023-02-18T11:24:40;1.60;;;0.70;;
64037;SDS011;54641;50.168;8.492;2023-02-18T11:27:17;2.60;;;1.70;;
64037;SDS011;54641;50.168;8.492;2023-02-18T11:29:52;2.90;;;1.00;;
64037;SDS011;54641;50.168;8.492;2023-02-18T11:32:27;1.70;;;0.60;;
64037;SDS011;54641;50.168;8.492;2023-02-18T11:34:58;3.00;;;0.90;;
64037;SDS011;54641;50.168;8.492;2023-02-18T11:37:30;2.60;;;0.90;;
64037;SDS011;54641;50.168;8.492;2023-02-18T11:40:01;2.50;;;1.00;;
64037;SDS011;54641;50.168;8.492;2023-02-18T11:42:32;7.30;;;3.30;;
64037;SDS011;54641;50.168;8.492;2023-02-18T11:45:03;5.40;;;1.90;;
64037;SDS011;54641;50.168;8.492;2023-02-18T11:47:34;1.40;;;0.70;;
64037;SDS011;54641;50.168;8.492;2023-02-18T11:50:15;3.10;;;1.00;;
64037;SDS011;54641;50.168;8.492;2023-02-18T11:52:51;2.40;;;1.20;;
64037;SDS011;54641;50.168;8.492;2023-02-18T11:55:24;1.70;;;1.10;;
64037;SDS011;54641;50.168;8.492;2023-02-18T11:57:57;2.00;;;0.90;;
64037;SDS011;54641;50.168;8.492;2023-02-18T12:00:34;2.30;;;1.40;;
64037;SDS011;54641;50.168;8.492;2023-02-18T12:03:12;2.40;;;1.00;;
64037;SDS011;54641;50.168;8.492;2023-02-18T12:05:45;1.60;;;1.00;;
64037;SDS011;54641;50.168;8.492;2023-02-18T12:08:18;1.40;;;0.80;;
64037;SDS011;54641;50.168;8.492;2023-02-18T12:10:50;1.30;;;0.70;;
64037;SDS011;54641;50.168;8.492;2023-02-18T12:13:24;2.50;;;0.80;;
64037;SDS011;54641;50.168;8.492;2023-02-18T12:15:59;3.20;;;1.10;;
64037;SDS011;54641;50.168;8.492;2023-02-18T12:21:32;2.00;;;1.00;;
64037;SDS011;54641;50.168;8.492;2023-02-18T12:24:11;1.50;;;0.90;;
64037;SDS011;54641;50.168;8.492;2023-02-18T12:26:51;2.70;;;1.30;;
64037;SDS011;54641;50.168;8.492;2023-02-18T12:29:30;4.10;;;1.10;;
64037;SDS011;54641;50.168;8.492;2023-02-18T12:32:20;3.80;;;1.10;;
64037;SDS011;54641;50.168;8.492;2023-02-18T12:35:02;2.00;;;0.80;;
64037;SDS011;54641;50.168;8.492;2023-02-18T12:37:51;2.50;;;1.10;;
64037;SDS011;54641;50.168;8.492;2023-02-18T12:43:24;2.70;;;1.20;;
64037;SDS011;54641;50.168;8.492;2023-02-18T12:46:01;3.00;;;1.10;;
64037;SDS011;54641;50.168;8.492;2023-02-18T12:48:48;5.50;;;1.60;;
64037;SDS011;54641;50.168;8.492;2023-02-18T12:51:33;2.20;;;1.00;;
64037;SDS011;54641;50.168;8.492;2023-02-18T12:57:13;3.70;;;1.40;;
64037;SDS011;54641;50.168;8.492;2023-02-18T12:59:57;3.30;;;1.20;;
64037;SDS011;54641;50.168;8.492;2023-02-18T13:02:51;4.60;;;1.10;;
64037;SDS011;54641;50.168;8.492;2023-02-18T13:05:32;2.00;;;1.10;;
64037;SDS011;54641;50.168;8.492;2023-02-18T13:08:14;1.80;;;1.20;;
64037;SDS011;54641;50.168;8.492;2023-02-18T13:10:53;7.90;;;1.40;;
64037;SDS011;54641;50.168;8.492;2023-02-18T13:13:30;2.60;;;1.20;;
64037;SDS011;54641;50.168;8.492;2023-02-18T13:16:04;4.10;;;1.30;;
64037;SDS011;54641;50.168;8.492;2023-02-18T13:18:38;1.90;;;1.10;;
64037;SDS011;54641;50.168;8.492;2023-02-18T13:23:42;1.80;;;1.40;;
64037;SDS011;54641;50.168;8.492;2023-02-18T13:26:18;2.60;;;1.10;;
64037;SDS011;54641;50.168;8.492;2023-02-18T13:28:50;3.20;;;1.40;;
64037;SDS011;54641;50.168;8.492;2023-02-18T13:31:30;2.20;;;1.10;;
64037;SDS011;54641;50.168;8.492;2023-02-18T13:34:09;1.70;;;1.10;;
64037;SDS011;54641;50.168;8.492;2023-02-18T13:36:48;3.20;;;1.40;;
64037;SDS011;54641;50.168;8.492;2023-02-18T13:39:23;1.70;;;1.00;;
64037;SDS011;54641;50.168;8.492;2023-02-18T13:42:09;2.90;;;1.40;;
64037;SDS011;54641;50.168;8.492;2023-02-18T13:48:22;3.60;;;1.80;;
64037;SDS011;54641;50.168;8.492;2023-02-18T13:50:55;2.30;;;1.10;;
64037;SDS011;54641;50.168;8.492;2023-02-18T13:53:33;2.90;;;1.20;;
64037;SDS011;54641;50.168;8.492;2023-02-18T13:56:06;4.00;;;1.40;;
64037;SDS011;54641;50.168;8.492;2023-02-18T14:01:16;4.70;;;1.40;;
64037;SDS011;54641;50.168;8.492;2023-02-18T14:03:54;3.20;;;1.80;;
64037;SDS011;54641;50.168;8.492;2023-02-18T14:06:27;3.40;;;1.20;;
64037;SDS011;54641;50.168;8.492;2023-02-18T14:09:03;3.80;;;1.70;;
64037;SDS011;54641;50.168;8.492;2023-02-18T14:11:48;4.10;;;1.80;;
64037;SDS011;54641;50.168;8.492;2023-02-18T14:14:39;2.40;;;1.30;;
64037;SDS011;54641;50.168;8.492;2023-02-18T14:17:22;3.00;;;1.50;;
64037;SDS011;54641;50.168;8.492;2023-02-18T14:23:07;3.60;;;1.50;;
64037;SDS011;54641;50.168;8.492;2023-02-18T14:26:06;2.20;;;1.10;;
64037;SDS011;54641;50.168;8.492;2023-02-18T14:28:42;5.80;;;1.70;;
64037;SDS011;54641;50.168;8.492;2023-02-18T14:31:18;1.70;;;1.10;;
64037;SDS011;54641;50.168;8.492;2023-02-18T14:40:23;4.30;;;1.50;;
64037;SDS011;54641;50.168;8.492;2023-02-18T14:42:58;4.00;;;1.90;;
64037;SDS011;54641;50.168;8.492;2023-02-18T14:45:34;3.30;;;1.50;;
64037;SDS011;54641;50.168;8.492;2023-02-18T14:48:34;3.50;;;1.60;;
64037;SDS011;54641;50.168;8.492;2023-02-18T14:51:11;4.40;;;1.40;;
64037;SDS011;54641;50.168;8.492;2023-02-18T14:53:44;6.10;;;4.30;;
64037;SDS011;54641;50.168;8.492;2023-02-18T14:56:16;2.10;;;1.40;;
64037;SDS011;54641;50.168;8.492;2023-02-18T14:58:48;3.80;;;1.50;;
64037;SDS011;54641;50.168;8.492;2023-02-18T15:01:21;2.40;;;1.20;;
64037;SDS011;54641;50.168;8.492;2023-02-18T15:03:53;3.70;;;2.80;;
64037;SDS011;54641;50.168;8.492;2023-02-18T15:06:27;2.20;;;1.10;;
64037;SDS011;54641;50.168;8.492;2023-02-18T15:09:00;3.50;;;1.30;;
64037;SDS011;54641;50.168;8.492;2023-02-18T15:11:35;1.60;;;1.00;;
64037;SDS011;54641;50.168;8.492;2023-02-18T15:14:09;2.80;;;1.40;;
64037;SDS011;54641;50.168;8.492;2023-02-18T15:16:42;2.30;;;1.10;;
64037;SDS011;54641;50.168;8.492;2023-02-18T15:19:14;2.20;;;1.20;;
64037;SDS011;54641;50.168;8.492;2023-02-18T15:21:47;4.40;;;1.60;;
64037;SDS011;54641;50.168;8.492;2023-02-18T15:24:22;1.90;;;1.20;;
64037;SDS011;54641;50.168;8.492;2023-02-18T15:26:55;1.80;;;1.20;;
64037;SDS011;54641;50.168;8.492;2023-02-18T15:31:57;2.70;;;1.20;;
64037;SDS011;54641;50.168;8.492;2023-02-18T15:34:34;2.70;;;1.10;;
64037;SDS011;54641;50.168;8.492;2023-02-18T15:37:06;1.50;;;0.90;;
64037;SDS011;54641;50.168;8.492;2023-02-18T15:39:41;1.80;;;1.10;;
64037;SDS011;54641;50.168;8.492;2023-02-18T15:42:13;3.00;;;1.30;;
64037;SDS011;54641;50.168;8.492;2023-02-18T15:44:47;2.30;;;1.50;;
64037;SDS011;54641;50.168;8.492;2023-02-18T15:47:19;2.50;;;0.90;;
64037;SDS011;54641;50.168;8.492;2023-02-18T15:49:51;1.30;;;0.70;;
64037;SDS011;54641;50.168;8.492;2023-02-18T15:52:23;4.10;;;1.10;;
64037;SDS011;54641;50.168;8.492;2023-02-18T15:54:55;1.60;;;0.80;;
64037;SDS011;54641;50.168;8.492;2023-02-18T15:57:31;1.40;;;0.80;;
64037;SDS011;54641;50.168;8.492;2023-02-18T16:00:03;2.70;;;1.00;;
64037;SDS011;54641;50.168;8.492;2023-02-18T16:02:50;2.20;;;1.00;;
64037;SDS011;54641;50.168;8.492;2023-02-18T16:05:24;1.30;;;0.90;;
64037;SDS011;54641;50.168;8.492;2023-02-18T16:07:59;1.70;;;0.90;;
64037;SDS011;54641;50.168;8.492;2023-02-18T16:10:41;1.60;;;0.90;;
64037;SDS011;54641;50.168;8.492;2023-02-18T16:13:14;2.20;;;0.90;;
64037;SDS011;54641;50.168;8.492;2023-02-18T16:15:46;1.30;;;0.80;;
64037;SDS011;54641;50.168;8.492;2023-02-18T16:18:22;1.60;;;0.80;;